sensor_id;sensor_type;location;lat;lon;timestamp;pressure;altitude;pressure_sealevel;temperature;humidity
42587;BME280;28216;53.362;-6.288;2022-09-09T00:01:15;100369.25;;;15.94;100.00
42587;BME280;28216;53.362;-6.288;2022-09-09T00:03:53;100360.69;;;15.92;100.00
42587;BME280;28216;53.362;-6.288;2022-09-09T00:06:29;100360.91;;;15.91;100.00
42587;BME280;28216;53.362;-6.288;2022-09-09T00:09:17;100361.91;;;15.89;100.00
42587;BME280;28216;53.362;-6.288;2022-09-09T00:11:46;100364.75;;;15.88;100.00
42587;BME280;28216;53.362;-6.288;2022-09-09T00:14:21;100362.13;;;15.88;100.00
42587;BME280;28216;53.362;-6.288;2022-09-09T00:17:02;100364.97;;;15.86;100.00
42587;BME280;28216;53.362;-6.288;2022-09-09T00:19:46;100368.63;;;15.85;100.00
42587;BME280;28216;53.362;-6.288;2022-09-09T00:22:18;100367.41;;;15.81;100.00
42587;BME280;28216;53.362;-6.288;2022-09-09T00:24:53;100368.63;;;15.79;100.00
42587;BME280;28216;53.362;-6.288;2022-09-09T00:27:35;100369.66;;;15.78;100.00
42587;BME280;28216;53.362;-6.288;2022-09-09T00:30:18;100377.56;;;15.78;100.00
42587;BME280;28216;53.362;-6.288;2022-09-09T00:33:05;100369.03;;;15.76;100.00
42587;BME280;28216;53.362;-6.288;2022-09-09T00:35:40;100369.63;;;15.71;100.00
42587;BME280;28216;53.362;-6.288;2022-09-09T00:38:13;100368.00;;;15.70;100.00
42587;BME280;28216;53.362;-6.288;2022-09-09T00:43:26;100360.69;;;15.66;100.00
42587;BME280;28216;53.362;-6.288;2022-09-09T00:49:24;100352.34;;;15.62;100.00
42587;BME280;28216;53.362;-6.288;2022-09-09T00:52:12;100356.81;;;15.62;100.00
42587;BME280;28216;53.362;-6.288;2022-09-09T00:54:48;100356.00;;;15.61;100.00
42587;BME280;28216;53.362;-6.288;2022-09-09T01:05:37;100345.38;;;15.54;100.00
42587;BME280;28216;53.362;-6.288;2022-09-09T01:08:15;100356.13;;;15.53;100.00
42587;BME280;28216;53.362;-6.288;2022-09-09T01:10:50;100347.00;;;15.55;100.00
42587;BME280;28216;53.362;-6.288;2022-09-09T01:13:35;100351.09;;;15.58;100.00
42587;BME280;28216;53.362;-6.288;2022-09-09T01:16:03;100351.91;;;15.58;100.00
42587;BME280;28216;53.362;-6.288;2022-09-09T01:18:37;100351.09;;;15.58;100.00
42587;BME280;28216;53.362;-6.288;2022-09-09T01:26:26;100345.00;;;15.57;100.00
42587;BME280;28216;53.362;-6.288;2022-09-09T01:28:54;100348.00;;;15.54;100.00
42587;BME280;28216;53.362;-6.288;2022-09-09T01:31:32;100344.34;;;15.55;100.00
42587;BME280;28216;53.362;-6.288;2022-09-09T01:34:00;100343.94;;;15.52;100.00
42587;BME280;28216;53.362;-6.288;2022-09-09T01:39:03;100345.78;;;15.51;100.00
42587;BME280;28216;53.362;-6.288;2022-09-09T01:41:29;100342.31;;;15.51;100.00
42587;BME280;28216;53.362;-6.288;2022-09-09T01:43:55;100346.59;;;15.52;100.00
42587;BME280;28216;53.362;-6.288;2022-09-09T01:46:22;100343.13;;;15.51;100.00
42587;BME280;28216;53.362;-6.288;2022-09-09T01:48:48;100351.06;;;15.51;100.00
42587;BME280;28216;53.362;-6.288;2022-09-09T01:51:15;100350.03;;;15.52;100.00
42587;BME280;28216;53.362;-6.288;2022-09-09T01:53:41;100347.59;;;15.51;100.00
42587;BME280;28216;53.362;-6.288;2022-09-09T01:59:10;100345.56;;;15.53;100.00
42587;BME280;28216;53.362;-6.288;2022-09-09T02:04:41;100344.75;;;15.52;100.00
42587;BME280;28216;53.362;-6.288;2022-09-09T02:09:47;100341.50;;;15.50;100.00
42587;BME280;28216;53.362;-6.288;2022-09-09T02:12:16;100344.16;;;15.50;100.00
42587;BME280;28216;53.362;-6.288;2022-09-09T02:14:51;100351.06;;;15.51;100.00
42587;BME280;28216;53.362;-6.288;2022-09-09T02:17:25;100338.84;;;15.50;100.00
42587;BME280;28216;53.362;-6.288;2022-09-09T02:20:05;100346.38;;;15.53;100.00
42587;BME280;28216;53.362;-6.288;2022-09-09T02:22:34;100337.44;;;15.54;100.00
42587;BME280;28216;53.362;-6.288;2022-09-09T02:25:07;100348.63;;;15.56;100.00
42587;BME280;28216;53.362;-6.288;2022-09-09T02:27:34;100349.63;;;15.55;100.00
42587;BME280;28216;53.362;-6.288;2022-09-09T02:30:01;100339.06;;;15.55;100.00
42587;BME280;28216;53.362;-6.288;2022-09-09T02:32:28;100345.97;;;15.56;100.00
42587;BME280;28216;53.362;-6.288;2022-09-09T02:35:22;100345.16;;;15.56;100.00
42587;BME280;28216;53.362;-6.288;2022-09-09T02:37:50;100336.44;;;15.55;100.00
42587;BME280;28216;53.362;-6.288;2022-09-09T02:40:17;100343.53;;;15.55;100.00
42587;BME280;28216;53.362;-6.288;2022-09-09T02:42:45;100343.75;;;15.53;100.00
42587;BME280;28216;53.362;-6.288;2022-09-09T02:45:14;100338.47;;;15.53;100.00
42587;BME280;28216;53.362;-6.288;2022-09-09T02:48:14;100338.25;;;15.55;100.00
42587;BME280;28216;53.362;-6.288;2022-09-09T02:51:01;100338.25;;;15.55;100.00
42587;BME280;28216;53.362;-6.288;2022-09-09T02:56:18;100334.81;;;15.54;100.00
42587;BME280;28216;53.362;-6.288;2022-09-09T02:58:46;100333.97;;;15.54;100.00
42587;BME280;28216;53.362;-6.288;2022-09-09T03:01:12;100328.91;;;15.52;100.00
42587;BME280;28216;53.362;-6.288;2022-09-09T03:03:37;100317.53;;;15.52;100.00
42587;BME280;28216;53.362;-6.288;2022-09-09T03:06:03;100324.84;;;15.50;100.00
42587;BME280;28216;53.362;-6.288;2022-09-09T03:08:30;100327.47;;;15.50;100.00
42587;BME280;28216;53.362;-6.288;2022-09-09T03:10:58;100323.22;;;15.49;100.00
42587;BME280;28216;53.362;-6.288;2022-09-09T03:13:24;100316.91;;;15.50;100.00
42587;BME280;28216;53.362;-6.288;2022-09-09T03:15:50;100319.34;;;15.51;100.00
42587;BME280;28216;53.362;-6.288;2022-09-09T03:18:16;100324.84;;;15.50;100.00
42587;BME280;28216;53.362;-6.288;2022-09-09T03:20:42;100319.75;;;15.48;100.00
42587;BME280;28216;53.362;-6.288;2022-09-09T03:23:08;100315.47;;;15.47;100.00
42587;BME280;28216;53.362;-6.288;2022-09-09T03:25:34;100322.59;;;15.47;100.00
42587;BME280;28216;53.362;-6.288;2022-09-09T03:28:01;100320.78;;;15.47;100.00
42587;BME280;28216;53.362;-6.288;2022-09-09T03:30:27;100326.06;;;15.47;100.00
42587;BME280;28216;53.362;-6.288;2022-09-09T03:32:53;100332.16;;;15.48;100.00
42587;BME280;28216;53.362;-6.288;2022-09-09T03:35:20;100327.06;;;15.46;100.00
42587;BME280;28216;53.362;-6.288;2022-09-09T03:37:45;100329.91;;;15.45;100.00
42587;BME280;28216;53.362;-6.288;2022-09-09T03:40:11;100326.25;;;15.46;100.00
42587;BME280;28216;53.362;-6.288;2022-09-09T03:42:38;100324.81;;;15.43;100.00
42587;BME280;28216;53.362;-6.288;2022-09-09T03:45:06;100321.56;;;15.41;100.00
42587;BME280;28216;53.362;-6.288;2022-09-09T03:47:32;100323.19;;;15.36;100.00
42587;BME280;28216;53.362;-6.288;2022-09-09T03:49:58;100325.41;;;15.32;100.00
42587;BME280;28216;53.362;-6.288;2022-09-09T03:52:23;100324.81;;;15.30;100.00
42587;BME280;28216;53.362;-6.288;2022-09-09T03:54:51;100317.09;;;15.29;100.00
42587;BME280;28216;53.362;-6.288;2022-09-09T03:57:18;100323.19;;;15.29;100.00
42587;BME280;28216;53.362;-6.288;2022-09-09T03:59:44;100327.84;;;15.27;100.00
42587;BME280;28216;53.362;-6.288;2022-09-09T04:02:09;100328.06;;;15.25;100.00
42587;BME280;28216;53.362;-6.288;2022-09-09T04:04:35;100322.16;;;15.23;100.00
42587;BME280;28216;53.362;-6.288;2022-09-09T04:07:00;100330.06;;;15.23;100.00
42587;BME280;28216;53.362;-6.288;2022-09-09T04:09:26;100325.81;;;15.22;100.00
42587;BME280;28216;53.362;-6.288;2022-09-09T04:11:52;100331.09;;;15.22;100.00
42587;BME280;28216;53.362;-6.288;2022-09-09T04:14:18;100338.19;;;15.22;100.00
42587;BME280;28216;53.362;-6.288;2022-09-09T04:16:44;100329.66;;;15.20;100.00
42587;BME280;28216;53.362;-6.288;2022-09-09T04:19:11;100329.66;;;15.20;100.00
42587;BME280;28216;53.362;-6.288;2022-09-09T04:21:42;100333.31;;;15.19;100.00
42587;BME280;28216;53.362;-6.288;2022-09-09T04:24:08;100333.31;;;15.19;100.00
42587;BME280;28216;53.362;-6.288;2022-09-09T04:26:35;100330.69;;;15.19;100.00
42587;BME280;28216;53.362;-6.288;2022-09-09T04:29:02;100336.56;;;15.21;100.00
42587;BME280;28216;53.362;-6.288;2022-09-09T04:31:28;100348.16;;;15.20;100.00
42587;BME280;28216;53.362;-6.288;2022-09-09T04:33:56;100343.69;;;15.20;100.00
42587;BME280;28216;53.362;-6.288;2022-09-09T04:36:23;100334.13;;;15.19;100.00
42587;BME280;28216;53.362;-6.288;2022-09-09T04:38:48;100336.16;;;15.17;100.00
42587;BME280;28216;53.362;-6.288;2022-09-09T04:41:15;100332.09;;;15.15;100.00
42587;BME280;28216;53.362;-6.288;2022-09-09T04:43:41;100338.59;;;15.12;100.00
42587;BME280;28216;53.362;-6.288;2022-09-09T04:46:07;100332.69;;;15.10;100.00
42587;BME280;28216;53.362;-6.288;2022-09-09T04:48:33;100339.41;;;15.13;100.00
42587;BME280;28216;53.362;-6.288;2022-09-09T04:51:04;100345.50;;;15.13;100.00
42587;BME280;28216;53.362;-6.288;2022-09-09T04:53:30;100342.03;;;15.13;100.00
42587;BME280;28216;53.362;-6.288;2022-09-09T04:58:31;100343.66;;;15.14;100.00
42587;BME280;28216;53.362;-6.288;2022-09-09T05:01:17;100341.44;;;15.11;100.00
42587;BME280;28216;53.362;-6.288;2022-09-09T05:03:43;100343.25;;;15.10;100.00
42587;BME280;28216;53.362;-6.288;2022-09-09T05:06:15;100342.03;;;15.06;100.00
42587;BME280;28216;53.362;-6.288;2022-09-09T05:08:42;100340.41;;;15.05;100.00
42587;BME280;28216;53.362;-6.288;2022-09-09T05:11:20;100347.91;;;15.08;100.00
42587;BME280;28216;53.362;-6.288;2022-09-09T05:13:49;100344.84;;;15.05;100.00
42587;BME280;28216;53.362;-6.288;2022-09-09T05:16:16;100341.41;;;15.04;100.00
42587;BME280;28216;53.362;-6.288;2022-09-09T05:18:42;100351.16;;;15.04;100.00
42587;BME280;28216;53.362;-6.288;2022-09-09T05:21:09;100343.44;;;15.02;100.00
42587;BME280;28216;53.362;-6.288;2022-09-09T05:23:35;100341.19;;;14.99;100.00
42587;BME280;28216;53.362;-6.288;2022-09-09T05:26:00;100347.28;;;15.00;100.00
42587;BME280;28216;53.362;-6.288;2022-09-09T05:28:27;100350.94;;;14.99;100.00
42587;BME280;28216;53.362;-6.288;2022-09-09T05:31:00;100337.72;;;14.99;100.00
42587;BME280;28216;53.362;-6.288;2022-09-09T05:33:26;100348.91;;;15.01;100.00
42587;BME280;28216;53.362;-6.288;2022-09-09T05:35:59;100355.81;;;15.02;100.00
42587;BME280;28216;53.362;-6.288;2022-09-09T05:38:27;100351.75;;;14.99;100.00
42587;BME280;28216;53.362;-6.288;2022-09-09T05:40:54;100356.00;;;15.00;100.00
42587;BME280;28216;53.362;-6.288;2022-09-09T05:43:20;100351.56;;;15.01;100.00
42587;BME280;28216;53.362;-6.288;2022-09-09T05:45:47;100357.63;;;15.01;100.00
42587;BME280;28216;53.362;-6.288;2022-09-09T05:48:14;100356.63;;;15.02;100.00
42587;BME280;28216;53.362;-6.288;2022-09-09T05:50:40;100359.28;;;15.02;100.00
42587;BME280;28216;53.362;-6.288;2022-09-09T05:53:06;100367.81;;;15.04;100.00
42587;BME280;28216;53.362;-6.288;2022-09-09T05:55:31;100373.91;;;15.05;100.00
42587;BME280;28216;53.362;-6.288;2022-09-09T05:57:57;100379.19;;;15.05;100.00
42587;BME280;28216;53.362;-6.288;2022-09-09T06:00:23;100386.09;;;15.06;100.00
42587;BME280;28216;53.362;-6.288;2022-09-09T06:02:52;100377.16;;;15.07;100.00
42587;BME280;28216;53.362;-6.288;2022-09-09T06:05:18;100381.63;;;15.06;100.00
42587;BME280;28216;53.362;-6.288;2022-09-09T06:07:44;100384.25;;;15.06;100.00
42587;BME280;28216;53.362;-6.288;2022-09-09T06:10:10;100381.44;;;15.08;100.00
42587;BME280;28216;53.362;-6.288;2022-09-09T06:12:39;100390.16;;;15.08;100.00
42587;BME280;28216;53.362;-6.288;2022-09-09T06:15:05;100392.59;;;15.10;100.00
42587;BME280;28216;53.362;-6.288;2022-09-09T06:17:30;100394.84;;;15.13;100.00
42587;BME280;28216;53.362;-6.288;2022-09-09T06:19:56;100392.81;;;15.15;100.00
42587;BME280;28216;53.362;-6.288;2022-09-09T06:22:22;100399.16;;;15.20;100.00
42587;BME280;28216;53.362;-6.288;2022-09-09T06:24:47;100399.97;;;15.27;100.00
42587;BME280;28216;53.362;-6.288;2022-09-09T06:27:13;100397.13;;;15.29;100.00
42587;BME280;28216;53.362;-6.288;2022-09-09T06:29:39;100411.34;;;15.28;100.00
42587;BME280;28216;53.362;-6.288;2022-09-09T06:32:04;100406.88;;;15.29;100.00
42587;BME280;28216;53.362;-6.288;2022-09-09T06:34:30;100420.72;;;15.31;100.00
42587;BME280;28216;53.362;-6.288;2022-09-09T06:36:55;100419.47;;;15.26;100.00
42587;BME280;28216;53.362;-6.288;2022-09-09T06:39:23;100419.28;;;15.28;100.00
42587;BME280;28216;53.362;-6.288;2022-09-09T06:41:48;100417.47;;;15.29;100.00
42587;BME280;28216;53.362;-6.288;2022-09-09T06:44:15;100422.53;;;15.30;100.00
42587;BME280;28216;53.362;-6.288;2022-09-09T06:46:40;100431.66;;;15.27;100.00
42587;BME280;28216;53.362;-6.288;2022-09-09T06:49:08;100428.84;;;15.29;100.00
42587;BME280;28216;53.362;-6.288;2022-09-09T06:51:35;100438.81;;;15.34;100.00
42587;BME280;28216;53.362;-6.288;2022-09-09T06:54:02;100438.59;;;15.35;100.00
42587;BME280;28216;53.362;-6.288;2022-09-09T06:56:33;100433.94;;;15.37;100.00
42587;BME280;28216;53.362;-6.288;2022-09-09T06:59:02;100439.84;;;15.39;100.00
42587;BME280;28216;53.362;-6.288;2022-09-09T07:01:31;100444.13;;;15.40;100.00
42587;BME280;28216;53.362;-6.288;2022-09-09T07:03:58;100455.28;;;15.42;100.00
42587;BME280;28216;53.362;-6.288;2022-09-09T07:06:26;100458.94;;;15.41;100.00
42587;BME280;28216;53.362;-6.288;2022-09-09T07:08:57;100455.91;;;15.44;100.00
42587;BME280;28216;53.362;-6.288;2022-09-09T07:11:26;100462.44;;;15.48;100.00
42587;BME280;28216;53.362;-6.288;2022-09-09T07:13:53;100468.13;;;15.52;100.00
42587;BME280;28216;53.362;-6.288;2022-09-09T07:16:20;100464.28;;;15.54;100.00
42587;BME280;28216;53.362;-6.288;2022-09-09T07:18:46;100467.97;;;15.60;100.00
42587;BME280;28216;53.362;-6.288;2022-09-09T07:21:13;100472.09;;;15.63;100.00
42587;BME280;28216;53.362;-6.288;2022-09-09T07:23:40;100471.06;;;15.64;100.00
42587;BME280;28216;53.362;-6.288;2022-09-09T07:26:14;100484.09;;;15.65;100.00
42587;BME280;28216;53.362;-6.288;2022-09-09T07:28:40;100483.88;;;15.67;100.00
42587;BME280;28216;53.362;-6.288;2022-09-09T07:31:08;100482.69;;;15.69;100.00
42587;BME280;28216;53.362;-6.288;2022-09-09T07:33:39;100492.44;;;15.69;100.00
42587;BME280;28216;53.362;-6.288;2022-09-09T07:36:17;100499.34;;;15.70;100.00
42587;BME280;28216;53.362;-6.288;2022-09-09T07:38:45;100494.69;;;15.72;100.00
42587;BME280;28216;53.362;-6.288;2022-09-09T07:41:14;100496.91;;;15.75;100.00
42587;BME280;28216;53.362;-6.288;2022-09-09T07:43:41;100497.34;;;15.78;100.00
42587;BME280;28216;53.362;-6.288;2022-09-09T07:46:08;100501.00;;;15.84;100.00
42587;BME280;28216;53.362;-6.288;2022-09-09T07:48:34;100510.78;;;15.90;100.00
42587;BME280;28216;53.362;-6.288;2022-09-09T07:51:04;100511.63;;;15.97;100.00
42587;BME280;28216;53.362;-6.288;2022-09-09T07:53:31;100514.88;;;16.06;100.00
42587;BME280;28216;53.362;-6.288;2022-09-09T07:56:05;100510.03;;;16.16;100.00
42587;BME280;28216;53.362;-6.288;2022-09-09T07:58:31;100517.81;;;16.50;100.00
42587;BME280;28216;53.362;-6.288;2022-09-09T08:00:57;100522.88;;;16.98;100.00
42587;BME280;28216;53.362;-6.288;2022-09-09T08:03:23;100526.19;;;17.52;100.00
42587;BME280;28216;53.362;-6.288;2022-09-09T08:05:48;100534.03;;;17.91;100.00
42587;BME280;28216;53.362;-6.288;2022-09-09T08:08:14;100532.41;;;18.22;100.00
42587;BME280;28216;53.362;-6.288;2022-09-09T08:10:42;100535.41;;;18.57;100.00
42587;BME280;28216;53.362;-6.288;2022-09-09T08:13:08;100547.16;;;18.74;100.00
42587;BME280;28216;53.362;-6.288;2022-09-09T08:15:34;100548.84;;;18.68;100.00
42587;BME280;28216;53.362;-6.288;2022-09-09T08:17:59;100553.19;;;18.56;100.00
42587;BME280;28216;53.362;-6.288;2022-09-09T08:20:25;100555.72;;;18.45;100.00
42587;BME280;28216;53.362;-6.288;2022-09-09T08:22:50;100552.78;;;18.28;100.00
42587;BME280;28216;53.362;-6.288;2022-09-09T08:25:15;100560.81;;;18.15;100.00
42587;BME280;28216;53.362;-6.288;2022-09-09T08:27:41;100563.56;;;18.01;100.00
42587;BME280;28216;53.362;-6.288;2022-09-09T08:30:07;100575.44;;;17.92;100.00
42587;BME280;28216;53.362;-6.288;2022-09-09T08:32:32;100571.19;;;17.85;100.00
42587;BME280;28216;53.362;-6.288;2022-09-09T08:35:00;100584.66;;;17.76;100.00
42587;BME280;28216;53.362;-6.288;2022-09-09T08:37:25;100583.66;;;17.71;100.00
42587;BME280;28216;53.362;-6.288;2022-09-09T08:39:51;100576.53;;;17.65;100.00
42587;BME280;28216;53.362;-6.288;2022-09-09T08:42:38;100579.59;;;17.68;100.00
42587;BME280;28216;53.362;-6.288;2022-09-09T08:48:01;100589.34;;;17.81;100.00
42587;BME280;28216;53.362;-6.288;2022-09-09T08:50:36;100589.34;;;17.88;100.00
42587;BME280;28216;53.362;-6.288;2022-09-09T08:53:09;100595.44;;;17.95;100.00
42587;BME280;28216;53.362;-6.288;2022-09-09T08:55:55;100594.19;;;17.97;100.00
42587;BME280;28216;53.362;-6.288;2022-09-09T08:58:29;100600.09;;;17.99;100.00
42587;BME280;28216;53.362;-6.288;2022-09-09T09:11:02;100621.75;;;17.83;100.00
42587;BME280;28216;53.362;-6.288;2022-09-09T09:13:11;100630.34;;;17.78;100.00
42587;BME280;28216;53.362;-6.288;2022-09-09T09:15:39;100631.59;;;17.76;100.00
42587;BME280;28216;53.362;-6.288;2022-09-09T09:18:11;100640.38;;;17.70;100.00
42587;BME280;28216;53.362;-6.288;2022-09-09T09:23:20;100651.78;;;17.70;100.00
42587;BME280;28216;53.362;-6.288;2022-09-09T09:25:47;100649.13;;;17.77;100.00
42587;BME280;28216;53.362;-6.288;2022-09-09T09:28:24;100643.19;;;17.82;100.00
42587;BME280;28216;53.362;-6.288;2022-09-09T09:36:08;100660.50;;;17.97;100.00
42587;BME280;28216;53.362;-6.288;2022-09-09T09:38:35;100661.13;;;17.99;100.00
42587;BME280;28216;53.362;-6.288;2022-09-09T09:41:01;100663.97;;;17.98;100.00
42587;BME280;28216;53.362;-6.288;2022-09-09T09:43:35;100666.63;;;17.98;100.00
42587;BME280;28216;53.362;-6.288;2022-09-09T09:46:04;100669.47;;;18.03;100.00
42587;BME280;28216;53.362;-6.288;2022-09-09T09:48:30;100674.94;;;18.08;100.00
42587;BME280;28216;53.362;-6.288;2022-09-09T09:51:00;100677.78;;;18.13;100.00
42587;BME280;28216;53.362;-6.288;2022-09-09T09:53:32;100683.47;;;18.23;100.00
42587;BME280;28216;53.362;-6.288;2022-09-09T09:56:03;100684.03;;;18.32;100.00
42587;BME280;28216;53.362;-6.288;2022-09-09T09:58:31;100691.16;;;18.38;100.00
42587;BME280;28216;53.362;-6.288;2022-09-09T10:01:00;100693.38;;;18.41;100.00
42587;BME280;28216;53.362;-6.288;2022-09-09T10:03:33;100689.88;;;18.47;100.00
42587;BME280;28216;53.362;-6.288;2022-09-09T10:06:03;100692.88;;;18.57;100.00
42587;BME280;28216;53.362;-6.288;2022-09-09T10:08:29;100704.13;;;18.66;100.00
42587;BME280;28216;53.362;-6.288;2022-09-09T10:14:03;100698.91;;;18.84;100.00
42587;BME280;28216;53.362;-6.288;2022-09-09T10:19:37;100700.22;;;19.00;100.00
42587;BME280;28216;53.362;-6.288;2022-09-09T10:33:09;100717.34;;;19.29;100.00
42587;BME280;28216;53.362;-6.288;2022-09-09T10:38:17;100716.22;;;19.18;100.00
42587;BME280;28216;53.362;-6.288;2022-09-09T10:46:15;100725.31;;;19.60;100.00
42587;BME280;28216;53.362;-6.288;2022-09-09T10:51:35;100723.94;;;19.76;100.00
42587;BME280;28216;53.362;-6.288;2022-09-09T10:56:55;100738.50;;;19.74;100.00
42587;BME280;28216;53.362;-6.288;2022-09-09T10:59:29;100738.84;;;19.59;100.00
42587;BME280;28216;53.362;-6.288;2022-09-09T11:02:10;100731.53;;;19.48;100.00
42587;BME280;28216;53.362;-6.288;2022-09-09T11:04:45;100739.16;;;19.44;100.00
42587;BME280;28216;53.362;-6.288;2022-09-09T11:08:01;100745.13;;;19.40;100.00
42587;BME280;28216;53.362;-6.288;2022-09-09T11:10:18;100745.34;;;19.38;100.00
42587;BME280;28216;53.362;-6.288;2022-09-09T11:12:51;100750.59;;;19.45;100.00
42587;BME280;28216;53.362;-6.288;2022-09-09T11:18:49;100759.09;;;19.60;100.00
42587;BME280;28216;53.362;-6.288;2022-09-09T11:21:27;100759.91;;;19.60;100.00
42587;BME280;28216;53.362;-6.288;2022-09-09T11:24:10;100763.38;;;19.61;100.00
42587;BME280;28216;53.362;-6.288;2022-09-09T11:26:42;100756.34;;;19.66;100.00
42587;BME280;28216;53.362;-6.288;2022-09-09T11:29:56;100765.09;;;19.74;100.00
42587;BME280;28216;53.362;-6.288;2022-09-09T11:32:33;100759.72;;;19.80;100.00
42587;BME280;28216;53.362;-6.288;2022-09-09T11:40:35;100770.53;;;20.04;100.00
42587;BME280;28216;53.362;-6.288;2022-09-09T11:43:22;100775.22;;;20.08;100.00
42587;BME280;28216;53.362;-6.288;2022-09-09T11:45:54;100776.75;;;20.16;100.00
42587;BME280;28216;53.362;-6.288;2022-09-09T11:53:28;100774.59;;;20.06;100.00
42587;BME280;28216;53.362;-6.288;2022-09-09T11:56:11;100777.31;;;19.99;100.00
42587;BME280;28216;53.362;-6.288;2022-09-09T11:58:41;100782.88;;;19.98;100.00
42587;BME280;28216;53.362;-6.288;2022-09-09T12:01:16;100785.09;;;20.01;100.00
42587;BME280;28216;53.362;-6.288;2022-09-09T12:03:58;100777.06;;;20.08;100.00
42587;BME280;28216;53.362;-6.288;2022-09-09T12:06:31;100782.31;;;20.14;100.00
42587;BME280;28216;53.362;-6.288;2022-09-09T12:09:19;100776.91;;;20.21;100.00
42587;BME280;28216;53.362;-6.288;2022-09-09T12:11:48;100770.94;;;20.44;100.00
42587;BME280;28216;53.362;-6.288;2022-09-09T12:19:42;100780.53;;;20.26;100.00
42587;BME280;28216;53.362;-6.288;2022-09-09T12:28:25;100800.09;;;19.95;100.00
42587;BME280;28216;53.362;-6.288;2022-09-09T12:31:02;100793.19;;;19.88;100.00
42587;BME280;28216;53.362;-6.288;2022-09-09T12:33:36;100795.91;;;19.81;100.00
42587;BME280;28216;53.362;-6.288;2022-09-09T12:36:03;100800.88;;;19.78;100.00
42587;BME280;28216;53.362;-6.288;2022-09-09T12:38:34;100809.06;;;19.76;100.00
42587;BME280;28216;53.362;-6.288;2022-09-09T12:41:00;100807.59;;;19.80;100.00
42587;BME280;28216;53.362;-6.288;2022-09-09T12:43:27;100805.69;;;19.87;100.00
42587;BME280;28216;53.362;-6.288;2022-09-09T12:46:11;100806.22;;;19.96;100.00
42587;BME280;28216;53.362;-6.288;2022-09-09T12:48:41;100807.53;;;20.12;100.00
42587;BME280;28216;53.362;-6.288;2022-09-09T12:51:19;100801.47;;;20.23;100.00
42587;BME280;28216;53.362;-6.288;2022-09-09T12:53:46;100809.75;;;20.33;100.00
42587;BME280;28216;53.362;-6.288;2022-09-09T12:56:27;100809.97;;;20.31;100.00
42587;BME280;28216;53.362;-6.288;2022-09-09T12:58:56;100822.69;;;20.29;99.85
42587;BME280;28216;53.362;-6.288;2022-09-09T13:03:49;100819.72;;;20.19;99.21
42587;BME280;28216;53.362;-6.288;2022-09-09T13:06:33;100833.47;;;20.16;99.21
42587;BME280;28216;53.362;-6.288;2022-09-09T13:09:01;100827.72;;;20.19;99.98
42587;BME280;28216;53.362;-6.288;2022-09-09T13:11:40;100831.19;;;20.20;98.93
42587;BME280;28216;53.362;-6.288;2022-09-09T13:14:19;100832.97;;;20.26;98.74
42587;BME280;28216;53.362;-6.288;2022-09-09T13:16:59;100832.91;;;20.33;97.56
42587;BME280;28216;53.362;-6.288;2022-09-09T13:19:29;100843.28;;;20.41;97.63
42587;BME280;28216;53.362;-6.288;2022-09-09T13:21:57;100840.63;;;20.41;96.88
42587;BME280;28216;53.362;-6.288;2022-09-09T13:24:27;100843.69;;;20.38;96.36
42587;BME280;28216;53.362;-6.288;2022-09-09T13:27:02;100845.03;;;20.28;96.51
42587;BME280;28216;53.362;-6.288;2022-09-09T13:29:28;100849.00;;;20.19;97.32
42587;BME280;28216;53.362;-6.288;2022-09-09T13:32:04;100848.13;;;20.07;98.35
42587;BME280;28216;53.362;-6.288;2022-09-09T13:34:33;100856.56;;;19.97;99.87
42587;BME280;28216;53.362;-6.288;2022-09-09T13:37:05;100856.69;;;19.84;100.00
42587;BME280;28216;53.362;-6.288;2022-09-09T13:39:36;100862.75;;;19.66;100.00
42587;BME280;28216;53.362;-6.288;2022-09-09T13:42:02;100859.19;;;19.48;100.00
42587;BME280;28216;53.362;-6.288;2022-09-09T13:44:31;100862.75;;;19.35;100.00
42587;BME280;28216;53.362;-6.288;2022-09-09T13:47:03;100859.13;;;19.23;100.00
42587;BME280;28216;53.362;-6.288;2022-09-09T13:49:30;100878.34;;;19.18;100.00
42587;BME280;28216;53.362;-6.288;2022-09-09T13:52:16;100870.16;;;19.20;100.00
42587;BME280;28216;53.362;-6.288;2022-09-09T13:54:47;100867.69;;;19.25;100.00
42587;BME280;28216;53.362;-6.288;2022-09-09T13:57:22;100873.00;;;19.25;100.00
42587;BME280;28216;53.362;-6.288;2022-09-09T13:59:48;100875.03;;;19.29;100.00
42587;BME280;28216;53.362;-6.288;2022-09-09T14:02:15;100872.56;;;19.34;100.00
42587;BME280;28216;53.362;-6.288;2022-09-09T14:04:41;100875.81;;;19.36;100.00
42587;BME280;28216;53.362;-6.288;2022-09-09T14:07:16;100880.34;;;19.36;100.00
42587;BME280;28216;53.362;-6.288;2022-09-09T14:09:43;100887.50;;;19.35;100.00
42587;BME280;28216;53.362;-6.288;2022-09-09T14:12:11;100888.31;;;19.36;100.00
42587;BME280;28216;53.362;-6.288;2022-09-09T14:14:37;100893.66;;;19.23;100.00
42587;BME280;28216;53.362;-6.288;2022-09-09T14:17:02;100891.28;;;19.08;100.00
42587;BME280;28216;53.362;-6.288;2022-09-09T14:19:29;100889.50;;;18.95;100.00
42587;BME280;28216;53.362;-6.288;2022-09-09T14:21:56;100890.97;;;18.91;100.00
42587;BME280;28216;53.362;-6.288;2022-09-09T14:24:22;100888.09;;;18.93;100.00
42587;BME280;28216;53.362;-6.288;2022-09-09T14:26:47;100893.63;;;18.91;100.00
42587;BME280;28216;53.362;-6.288;2022-09-09T14:29:13;100891.56;;;18.93;100.00
42587;BME280;28216;53.362;-6.288;2022-09-09T14:31:38;100902.78;;;18.95;100.00
42587;BME280;28216;53.362;-6.288;2022-09-09T14:34:04;100890.31;;;18.96;100.00
42587;BME280;28216;53.362;-6.288;2022-09-09T14:36:29;100902.59;;;18.97;100.00
42587;BME280;28216;53.362;-6.288;2022-09-09T14:38:55;100905.03;;;18.98;100.00
42587;BME280;28216;53.362;-6.288;2022-09-09T14:41:20;100908.47;;;19.05;100.00